createdAt,value
2022-08-26T00:02:02.420Z,3.87
2022-08-26T00:04:50.355Z,4.35
2022-08-26T00:07:38.098Z,4.53
2022-08-26T00:10:25.968Z,3.90
2022-08-26T00:13:14.817Z,3.60
2022-08-26T00:16:03.206Z,3.90
2022-08-26T00:18:53.141Z,3.67
2022-08-26T00:21:40.792Z,3.80
2022-08-26T00:24:28.445Z,3.90
2022-08-26T00:27:15.905Z,3.50
2022-08-26T00:30:05.392Z,3.70
2022-08-26T00:32:53.008Z,3.80
2022-08-26T00:35:41.200Z,4.53
2022-08-26T00:38:30.344Z,3.90
2022-08-26T00:41:19.423Z,3.83
2022-08-26T00:44:06.968Z,4.00
2022-08-26T00:46:58.975Z,4.20
2022-08-26T00:49:48.071Z,4.40
2022-08-26T00:52:36.248Z,3.75
2022-08-26T00:55:38.028Z,4.03
2022-08-26T00:58:26.392Z,4.42
2022-08-26T01:01:14.043Z,4.08
2022-08-26T01:04:02.048Z,5.00
2022-08-26T01:06:52.440Z,4.45
2022-08-26T01:09:39.999Z,4.12
2022-08-26T01:12:29.553Z,3.77
2022-08-26T01:15:21.944Z,3.98
2022-08-26T01:18:09.304Z,3.62
2022-08-26T01:21:19.255Z,3.83
2022-08-26T01:24:07.672Z,4.37
2022-08-26T01:27:03.505Z,4.20
2022-08-26T01:29:51.936Z,4.17
2022-08-26T01:32:42.012Z,4.55
2022-08-26T01:35:30.399Z,4.22
2022-08-26T01:38:18.559Z,5.20
2022-08-26T01:41:16.354Z,4.28
2022-08-26T01:43:57.890Z,4.10
2022-08-26T01:46:47.072Z,5.17
2022-08-26T01:49:36.768Z,5.20
2022-08-26T01:52:28.272Z,4.60
2022-08-26T01:55:27.660Z,4.50
2022-08-26T02:00:54.106Z,4.95
2022-08-26T02:03:45.062Z,4.40
2022-08-26T02:06:34.312Z,4.40
2022-08-26T02:09:22.114Z,4.80
2022-08-26T02:12:11.448Z,5.08
2022-08-26T02:15:00.839Z,5.33
2022-08-26T02:17:48.880Z,4.55
2022-08-26T02:20:38.000Z,4.08
2022-08-26T02:23:25.188Z,4.60
2022-08-26T02:26:18.022Z,4.08
2022-08-26T02:29:12.887Z,4.62
2022-08-26T02:32:01.967Z,4.10
2022-08-26T02:34:49.520Z,4.87
2022-08-26T02:37:37.001Z,5.12
2022-08-26T02:40:28.993Z,4.53
2022-08-26T02:43:17.165Z,4.83
2022-08-26T02:46:06.008Z,4.25
2022-08-26T02:48:53.836Z,5.00
2022-08-26T02:51:41.347Z,4.33
2022-08-26T02:54:30.495Z,5.40
2022-08-26T02:57:19.687Z,4.62
2022-08-26T03:00:11.049Z,4.47
2022-08-26T03:02:59.226Z,4.62
2022-08-26T03:05:47.416Z,4.78
2022-08-26T03:08:34.575Z,4.08
2022-08-26T03:11:21.855Z,3.95
2022-08-26T03:14:09.217Z,4.17
2022-08-26T03:16:56.639Z,4.17
2022-08-26T03:19:44.243Z,4.50
2022-08-26T03:22:31.463Z,4.42
2022-08-26T03:25:19.233Z,4.05
2022-08-26T03:28:06.559Z,4.65
2022-08-26T03:30:57.172Z,4.47
2022-08-26T03:33:44.424Z,4.03
2022-08-26T03:36:33.647Z,4.55
2022-08-26T03:39:22.607Z,4.03
2022-08-26T03:42:10.708Z,4.30
2022-08-26T03:44:58.521Z,4.22
2022-08-26T03:47:45.655Z,4.35
2022-08-26T03:50:34.399Z,4.90
2022-08-26T03:53:23.912Z,4.58
2022-08-26T03:56:11.960Z,4.05
2022-08-26T03:59:00.087Z,4.72
2022-08-26T04:01:47.425Z,4.72
2022-08-26T04:04:37.520Z,4.40
2022-08-26T04:07:26.080Z,4.87
2022-08-26T04:10:15.426Z,3.83
2022-08-26T04:13:04.876Z,4.10
2022-08-26T04:15:52.324Z,4.58
2022-08-26T04:18:40.613Z,4.37
2022-08-26T04:21:30.098Z,4.00
2022-08-26T04:24:18.304Z,3.95
2022-08-26T04:27:06.761Z,3.87
2022-08-26T04:29:55.711Z,4.50
2022-08-26T04:32:43.207Z,4.25
2022-08-26T04:35:31.311Z,4.45
2022-08-26T04:38:20.071Z,4.12
2022-08-26T04:41:15.708Z,4.50
2022-08-26T04:43:59.015Z,4.00
2022-08-26T04:46:46.617Z,4.35
2022-08-26T04:49:35.248Z,4.65
2022-08-26T04:52:22.848Z,4.35
2022-08-26T04:55:10.976Z,5.17
2022-08-26T04:57:58.449Z,5.50
2022-08-26T05:00:47.671Z,5.50
2022-08-26T05:03:34.884Z,4.47
2022-08-26T05:06:22.248Z,4.70
2022-08-26T05:09:09.495Z,4.58
2022-08-26T05:11:56.904Z,4.53
2022-08-26T05:14:43.928Z,3.95
2022-08-26T05:17:31.553Z,4.50
2022-08-26T05:20:22.638Z,4.22
2022-08-26T05:23:08.370Z,3.75
2022-08-26T05:25:59.261Z,3.65
2022-08-26T05:28:46.667Z,3.90
2022-08-26T05:31:36.348Z,4.10
2022-08-26T05:34:23.855Z,3.80
2022-08-26T05:37:13.657Z,3.77
2022-08-26T05:40:02.913Z,3.77
2022-08-26T05:42:53.143Z,3.95
2022-08-26T05:45:46.084Z,4.00
2022-08-26T05:48:32.632Z,6.20
2022-08-26T05:51:25.887Z,7.42
2022-08-26T05:54:11.167Z,5.50
2022-08-26T05:56:58.961Z,5.08
2022-08-26T05:59:46.208Z,4.05
2022-08-26T06:02:33.309Z,3.65
2022-08-26T06:05:21.256Z,3.87
2022-08-26T06:08:13.671Z,4.05
2022-08-26T06:11:02.815Z,4.37
2022-08-26T06:13:50.087Z,4.12
2022-08-26T06:16:40.739Z,4.25
2022-08-26T06:19:32.736Z,3.75
2022-08-26T06:22:36.152Z,4.10
2022-08-26T06:25:39.186Z,3.58
2022-08-26T06:28:27.505Z,3.80
2022-08-26T06:31:15.960Z,3.50
2022-08-26T06:34:10.341Z,3.58
2022-08-26T06:36:54.080Z,3.72
2022-08-26T06:39:41.991Z,3.70
2022-08-26T06:42:29.842Z,4.20
2022-08-26T06:45:17.588Z,4.17
2022-08-26T06:48:05.783Z,3.47
2022-08-26T06:51:06.656Z,4.00
2022-08-26T06:53:55.961Z,3.40
2022-08-26T06:56:45.455Z,3.65
2022-08-26T06:59:34.505Z,3.67
2022-08-26T07:02:22.735Z,3.60
2022-08-26T07:05:10.713Z,3.05
2022-08-26T07:07:58.967Z,3.72
2022-08-26T07:10:46.170Z,2.98
2022-08-26T07:13:35.624Z,2.90
2022-08-26T07:16:23.391Z,3.22
2022-08-26T07:19:11.616Z,3.25
2022-08-26T07:22:03.648Z,3.45
2022-08-26T07:24:51.867Z,3.35
2022-08-26T07:27:39.856Z,3.83
2022-08-26T07:30:27.776Z,3.12
2022-08-26T07:33:14.873Z,2.90
2022-08-26T07:36:02.657Z,3.15
2022-08-26T07:38:53.048Z,3.30
2022-08-26T07:41:40.823Z,2.92
2022-08-26T07:44:27.945Z,3.35
2022-08-26T07:47:24.694Z,3.40
2022-08-26T07:50:05.792Z,3.17
2022-08-26T07:52:53.649Z,3.55
2022-08-26T07:55:41.015Z,2.80
2022-08-26T07:58:30.297Z,2.70
2022-08-26T08:01:17.641Z,2.60
2022-08-26T08:04:06.278Z,2.17
2022-08-26T08:09:42.840Z,2.40
2022-08-26T08:12:30.216Z,2.10
2022-08-26T08:15:20.327Z,2.25
2022-08-26T08:21:10.873Z,2.50
2022-08-26T08:23:45.575Z,1.90
2022-08-26T08:26:34.913Z,2.20
2022-08-26T08:29:22.807Z,1.55
2022-08-26T08:32:11.629Z,2.40
2022-08-26T08:35:00.196Z,2.00
2022-08-26T08:37:48.231Z,2.02
2022-08-26T08:40:36.483Z,2.40
2022-08-26T08:43:41.359Z,2.10
2022-08-26T08:46:30.381Z,2.15
2022-08-26T08:49:18.560Z,1.90
2022-08-26T08:52:23.808Z,1.75
2022-08-26T08:55:17.754Z,1.75
2022-08-26T08:58:12.263Z,2.12
2022-08-26T09:01:04.811Z,2.00
2022-08-26T09:04:07.919Z,1.70
2022-08-26T09:09:48.856Z,1.62
2022-08-26T09:12:36.751Z,2.10
2022-08-26T09:18:31.440Z,1.98
2022-08-26T09:21:22.551Z,1.72
2022-08-26T09:24:11.314Z,1.98
2022-08-26T09:27:00.200Z,2.22
2022-08-26T09:29:50.387Z,2.25
2022-08-26T09:32:36.603Z,1.90
2022-08-26T09:35:31.178Z,1.90
2022-08-26T09:38:26.890Z,1.98
2022-08-26T09:41:26.882Z,2.22
2022-08-26T09:44:19.207Z,1.92
2022-08-26T09:47:08.975Z,2.10
2022-08-26T09:50:13.504Z,2.10
2022-08-26T09:53:28.782Z,2.20
2022-08-26T09:56:15.335Z,1.77
2022-08-26T09:59:04.016Z,2.27
2022-08-26T10:04:40.737Z,1.90
2022-08-26T10:07:39.000Z,2.58
2022-08-26T10:10:38.205Z,2.10
2022-08-26T10:13:35.770Z,2.17
2022-08-26T10:16:25.587Z,2.20
2022-08-26T10:19:25.639Z,1.95
2022-08-26T10:22:32.039Z,2.37
2022-08-26T10:25:31.736Z,2.20
2022-08-26T10:28:22.448Z,2.12
2022-08-26T10:31:42.092Z,2.40
2022-08-26T10:34:29.527Z,2.00
2022-08-26T10:37:24.703Z,2.20
2022-08-26T10:43:21.119Z,2.52
2022-08-26T10:46:16.100Z,2.20
2022-08-26T10:49:13.991Z,2.30
2022-08-26T10:52:12.384Z,2.27
2022-08-26T10:55:22.265Z,2.20
2022-08-26T10:58:26.714Z,2.33
2022-08-26T11:01:41.598Z,1.92
2022-08-26T11:04:51.690Z,2.30
2022-08-26T11:07:48.648Z,2.45
2022-08-26T11:10:48.530Z,2.33
2022-08-26T11:13:59.455Z,2.35
2022-08-26T11:20:00.332Z,2.40
2022-08-26T11:22:39.754Z,2.30
2022-08-26T11:25:30.906Z,1.80
2022-08-26T11:28:20.258Z,2.40
2022-08-26T11:31:27.291Z,2.35
2022-08-26T11:34:15.879Z,2.20
2022-08-26T11:37:05.144Z,2.27
2022-08-26T11:39:57.097Z,2.05
2022-08-26T11:42:59.667Z,2.22
2022-08-26T11:45:49.555Z,2.42
2022-08-26T11:48:43.355Z,2.33
2022-08-26T11:51:31.958Z,2.20
2022-08-26T11:54:26.919Z,2.25
2022-08-26T11:57:13.634Z,2.20
2022-08-26T12:00:01.605Z,2.10
2022-08-26T12:02:49.864Z,2.20
2022-08-26T12:05:39.759Z,2.05
2022-08-26T12:08:29.099Z,2.30
2022-08-26T12:11:21.891Z,1.92
2022-08-26T12:14:18.745Z,2.50
2022-08-26T12:17:17.575Z,2.40
2022-08-26T12:20:07.783Z,2.33
2022-08-26T12:22:55.682Z,2.50
2022-08-26T12:25:44.216Z,1.77
2022-08-26T12:28:33.703Z,2.10
2022-08-26T12:31:29.724Z,2.20
2022-08-26T12:34:18.624Z,2.27
2022-08-26T12:37:06.239Z,2.27
2022-08-26T12:39:54.987Z,2.70
2022-08-26T12:42:43.511Z,2.17
2022-08-26T12:45:45.091Z,2.15
2022-08-26T12:48:36.172Z,2.00
2022-08-26T12:51:26.232Z,2.45
2022-08-26T12:54:17.823Z,2.33
2022-08-26T12:57:12.775Z,2.70
2022-08-26T13:00:19.592Z,5.22
2022-08-26T13:03:46.803Z,2.90
2022-08-26T13:06:35.089Z,2.70
2022-08-26T13:09:25.646Z,2.90
2022-08-26T13:12:13.400Z,2.92
2022-08-26T13:15:02.241Z,2.52
2022-08-26T13:17:50.135Z,2.83
2022-08-26T13:20:40.860Z,2.50
2022-08-26T13:23:28.335Z,2.40
2022-08-26T13:26:15.718Z,2.50
2022-08-26T13:29:06.253Z,2.30
2022-08-26T13:31:53.017Z,2.40
2022-08-26T13:34:40.734Z,2.67
2022-08-26T13:37:34.384Z,2.40
2022-08-26T13:40:17.513Z,2.33
2022-08-26T13:43:04.937Z,2.00
2022-08-26T13:45:52.470Z,2.15
2022-08-26T13:48:41.100Z,2.60
2022-08-26T13:51:30.584Z,2.33
2022-08-26T13:54:18.224Z,2.70
2022-08-26T13:57:06.303Z,2.90
2022-08-26T13:59:54.159Z,2.20
2022-08-26T14:02:41.855Z,2.58
2022-08-26T14:05:30.248Z,2.15
2022-08-26T14:08:18.096Z,2.75
2022-08-26T14:11:05.593Z,2.20
2022-08-26T14:13:53.047Z,2.45
2022-08-26T14:16:59.718Z,2.20
2022-08-26T14:19:31.371Z,2.20
2022-08-26T14:22:21.082Z,2.52
2022-08-26T14:25:08.992Z,2.20
2022-08-26T14:27:58.271Z,2.20
2022-08-26T14:30:49.273Z,2.33
2022-08-26T14:33:38.434Z,2.52
2022-08-26T14:36:28.682Z,2.77
2022-08-26T14:39:15.895Z,2.30
2022-08-26T14:42:03.431Z,2.22
2022-08-26T14:44:56.400Z,2.20
2022-08-26T14:47:43.816Z,2.52
2022-08-26T14:50:31.248Z,2.72
2022-08-26T14:53:36.559Z,2.75
2022-08-26T14:56:24.351Z,2.20
2022-08-26T14:59:14.391Z,1.82
2022-08-26T15:02:02.284Z,2.35
2022-08-26T15:04:50.727Z,2.50
2022-08-26T15:07:39.111Z,2.80
2022-08-26T15:10:26.891Z,2.90
2022-08-26T15:13:14.566Z,2.60
2022-08-26T15:16:02.279Z,2.27
2022-08-26T15:18:51.359Z,2.47
2022-08-26T15:21:38.842Z,3.00
2022-08-26T15:24:29.063Z,2.75
2022-08-26T15:27:16.983Z,3.12
2022-08-26T15:30:07.648Z,2.70
2022-08-26T15:32:55.400Z,2.75
2022-08-26T15:35:42.946Z,2.52
2022-08-26T15:38:32.808Z,3.23
2022-08-26T15:41:20.447Z,2.70
2022-08-26T15:44:08.662Z,2.80
2022-08-26T15:46:58.622Z,2.67
2022-08-26T15:49:45.683Z,2.95
2022-08-26T15:52:33.095Z,2.92
2022-08-26T15:55:20.933Z,2.92
2022-08-26T15:58:10.687Z,2.77
2022-08-26T16:00:58.240Z,3.00
2022-08-26T16:03:46.463Z,3.00
2022-08-26T16:06:36.754Z,2.95
2022-08-26T16:09:26.668Z,2.87
2022-08-26T16:15:01.655Z,2.90
2022-08-26T16:17:49.256Z,2.95
2022-08-26T16:20:39.231Z,3.00
2022-08-26T16:23:27.159Z,2.85
2022-08-26T16:26:17.920Z,3.30
2022-08-26T16:29:08.720Z,3.17
2022-08-26T16:31:56.223Z,3.33
2022-08-26T16:34:56.793Z,3.62
2022-08-26T16:37:37.674Z,3.55
2022-08-26T16:40:25.150Z,3.55
2022-08-26T16:43:15.271Z,3.75
2022-08-26T16:46:02.257Z,3.25
2022-08-26T16:48:49.855Z,3.62
2022-08-26T16:51:38.002Z,3.85
2022-08-26T16:54:26.479Z,3.67
2022-08-26T16:57:14.529Z,3.90
2022-08-26T17:00:05.183Z,4.05
2022-08-26T17:02:54.108Z,3.55
2022-08-26T17:05:41.882Z,3.77
2022-08-26T17:08:29.098Z,3.65
2022-08-26T17:11:16.839Z,3.83
2022-08-26T17:14:04.406Z,3.72
2022-08-26T17:16:53.719Z,3.98
2022-08-26T17:19:47.092Z,4.15
2022-08-26T17:22:34.509Z,4.55
2022-08-26T17:25:29.816Z,4.78
2022-08-26T17:28:17.440Z,4.67
2022-08-26T17:31:05.307Z,4.75
2022-08-26T17:33:54.258Z,4.87
2022-08-26T17:36:42.033Z,4.72
2022-08-26T17:39:29.248Z,5.20
2022-08-26T17:42:16.337Z,5.62
2022-08-26T17:45:04.105Z,6.25
2022-08-26T17:47:52.454Z,5.80
2022-08-26T17:50:41.443Z,8.25
2022-08-26T17:53:29.625Z,7.60
2022-08-26T17:56:19.047Z,7.58
2022-08-26T17:59:06.233Z,7.60
2022-08-26T18:01:55.677Z,7.72
2022-08-26T18:04:43.265Z,7.08
2022-08-26T18:07:33.793Z,7.03
2022-08-26T18:10:24.824Z,7.37
2022-08-26T18:13:14.266Z,6.70
2022-08-26T18:16:03.463Z,6.67
2022-08-26T18:18:52.888Z,7.33
2022-08-26T18:21:40.400Z,7.15
2022-08-26T18:24:29.465Z,6.50
2022-08-26T18:27:17.089Z,6.35
2022-08-26T18:30:07.249Z,5.60
2022-08-26T18:32:54.706Z,5.28
2022-08-26T18:35:44.184Z,5.33
2022-08-26T18:38:31.539Z,5.50
2022-08-26T18:41:22.000Z,5.60
2022-08-26T18:44:13.414Z,5.97
2022-08-26T18:46:58.881Z,6.00
2022-08-26T18:49:47.402Z,5.58
2022-08-26T18:52:34.912Z,5.28
2022-08-26T18:55:22.240Z,5.85
2022-08-26T18:58:09.884Z,5.58
2022-08-26T19:00:58.943Z,6.20
2022-08-26T19:03:50.107Z,6.08
2022-08-26T19:06:39.609Z,6.45
2022-08-26T19:09:27.450Z,6.25
2022-08-26T19:12:15.225Z,7.22
2022-08-26T19:15:03.360Z,6.15
2022-08-26T19:17:50.912Z,6.28
2022-08-26T19:20:46.671Z,6.10
2022-08-26T19:23:32.838Z,6.72
2022-08-26T19:26:20.671Z,6.87
2022-08-26T19:29:08.296Z,5.65
2022-08-26T19:31:55.832Z,6.70
2022-08-26T19:34:43.629Z,5.97
2022-08-26T19:37:31.537Z,6.28
2022-08-26T19:40:19.305Z,5.97
2022-08-26T19:43:07.000Z,6.00
2022-08-26T19:45:54.478Z,6.00
2022-08-26T19:48:45.369Z,6.40
2022-08-26T19:51:35.586Z,6.55
2022-08-26T19:54:23.361Z,6.42
2022-08-26T19:57:11.129Z,6.40
2022-08-26T20:00:00.785Z,6.62
2022-08-26T20:02:49.033Z,6.62
2022-08-26T20:05:36.796Z,6.25
2022-08-26T20:08:24.825Z,6.97
2022-08-26T20:11:14.586Z,6.97
2022-08-26T20:14:02.016Z,6.45
2022-08-26T20:16:49.655Z,6.35
2022-08-26T20:19:54.897Z,6.72
2022-08-26T20:22:42.440Z,7.15
2022-08-26T20:25:30.778Z,6.20
2022-08-26T20:28:18.882Z,7.67
2022-08-26T20:31:07.640Z,7.87
2022-08-26T20:33:57.535Z,6.25
2022-08-26T20:36:46.216Z,6.87
2022-08-26T20:39:33.936Z,7.15
2022-08-26T20:42:21.552Z,7.20
2022-08-26T20:45:09.689Z,8.53
2022-08-26T20:47:57.314Z,8.03
2022-08-26T20:50:46.489Z,7.87
2022-08-26T20:53:34.431Z,7.90
2022-08-26T20:56:24.366Z,7.70
2022-08-26T20:59:12.256Z,7.05
2022-08-26T21:02:00.823Z,7.40
2022-08-26T21:04:48.658Z,6.95
2022-08-26T21:07:36.399Z,7.60
2022-08-26T21:10:23.804Z,7.22
2022-08-26T21:13:11.143Z,7.97
2022-08-26T21:15:59.434Z,8.13
2022-08-26T21:18:47.911Z,7.62
2022-08-26T21:21:35.186Z,7.33
2022-08-26T21:24:23.464Z,8.15
2022-08-26T21:27:10.639Z,8.35
2022-08-26T21:29:57.768Z,7.35
2022-08-26T21:32:45.271Z,8.20
2022-08-26T21:35:32.764Z,8.08
2022-08-26T21:38:21.342Z,8.30
2022-08-26T21:41:13.033Z,7.60
2022-08-26T21:44:01.170Z,7.47
2022-08-26T21:46:49.958Z,7.90
2022-08-26T21:49:37.263Z,8.23
2022-08-26T21:52:24.877Z,8.15
2022-08-26T21:55:12.304Z,7.75
2022-08-26T21:57:59.321Z,7.67
2022-08-26T22:00:53.444Z,7.42
2022-08-26T22:03:47.464Z,6.85
2022-08-26T22:06:30.638Z,7.50
2022-08-26T22:09:26.239Z,6.83
2022-08-26T22:12:15.550Z,6.80
2022-08-26T22:15:03.679Z,7.08
2022-08-26T22:17:51.089Z,7.95
2022-08-26T22:20:39.327Z,7.65
2022-08-26T22:23:39.275Z,6.55
2022-08-26T22:29:14.784Z,8.65
2022-08-26T22:32:02.862Z,8.65
2022-08-26T22:34:50.167Z,8.20
2022-08-26T22:37:37.619Z,7.30
2022-08-26T22:40:25.241Z,7.75
2022-08-26T22:43:13.079Z,8.45
2022-08-26T22:46:00.606Z,8.33
2022-08-26T22:48:53.864Z,8.05
2022-08-26T22:51:37.422Z,8.13
2022-08-26T22:54:24.593Z,8.45
2022-08-26T22:57:11.903Z,7.03
2022-08-26T22:59:59.703Z,6.47
2022-08-26T23:02:47.126Z,7.55
2022-08-26T23:05:35.388Z,7.47
2022-08-26T23:08:23.294Z,8.38
2022-08-26T23:11:12.358Z,7.62
2022-08-26T23:14:00.023Z,8.20
2022-08-26T23:16:49.017Z,8.83
2022-08-26T23:19:36.727Z,8.50
2022-08-26T23:22:24.071Z,7.87
2022-08-26T23:25:12.047Z,8.68
2022-08-26T23:28:00.727Z,8.35
2022-08-26T23:30:48.862Z,7.35
2022-08-26T23:33:54.056Z,8.03
2022-08-26T23:36:43.383Z,7.40
2022-08-26T23:39:36.654Z,7.83
2022-08-26T23:42:24.367Z,7.72
2022-08-26T23:45:16.630Z,6.90
2022-08-26T23:48:04.712Z,7.40
2022-08-26T23:51:10.118Z,7.33
2022-08-26T23:53:58.128Z,7.20
2022-08-26T23:56:45.713Z,7.42
2022-08-26T23:59:34.177Z,7.00
